sensor_id;sensor_type;location;lat;lon;timestamp;temperature;humidity
71047;SHT31;58703;48.978;8.982;2022-08-19T00:00:19;19.56;78.36
71047;SHT31;58703;48.978;8.982;2022-08-19T00:02:44;19.63;78.24
71047;SHT31;58703;48.978;8.982;2022-08-19T00:05:12;19.58;78.46
71047;SHT31;58703;48.978;8.982;2022-08-19T00:07:38;19.60;78.29
71047;SHT31;58703;48.978;8.982;2022-08-19T00:10:05;19.60;78.46
71047;SHT31;58703;48.978;8.982;2022-08-19T00:12:32;19.60;78.56
71047;SHT31;58703;48.978;8.982;2022-08-19T00:14:58;19.64;78.63
71047;SHT31;58703;48.978;8.982;2022-08-19T00:17:23;19.60;78.81
71047;SHT31;58703;48.978;8.982;2022-08-19T00:19:49;19.61;78.63
71047;SHT31;58703;48.978;8.982;2022-08-19T00:22:14;19.70;78.37
71047;SHT31;58703;48.978;8.982;2022-08-19T00:24:44;19.74;78.06
71047;SHT31;58703;48.978;8.982;2022-08-19T00:27:11;19.77;78.07
71047;SHT31;58703;48.978;8.982;2022-08-19T00:29:37;19.85;77.67
71047;SHT31;58703;48.978;8.982;2022-08-19T00:32:03;19.95;77.14
71047;SHT31;58703;48.978;8.982;2022-08-19T00:34:29;20.00;76.92
71047;SHT31;58703;48.978;8.982;2022-08-19T00:36:56;20.10;76.67
71047;SHT31;58703;48.978;8.982;2022-08-19T00:39:22;20.08;76.91
71047;SHT31;58703;48.978;8.982;2022-08-19T00:41:49;20.05;76.87
71047;SHT31;58703;48.978;8.982;2022-08-19T00:44:19;20.11;76.41
71047;SHT31;58703;48.978;8.982;2022-08-19T00:46:48;20.17;76.29
71047;SHT31;58703;48.978;8.982;2022-08-19T00:49:28;20.18;76.02
71047;SHT31;58703;48.978;8.982;2022-08-19T00:52:03;20.17;75.99
71047;SHT31;58703;48.978;8.982;2022-08-19T00:54:30;20.15;76.08
71047;SHT31;58703;48.978;8.982;2022-08-19T00:56:58;20.11;76.18
71047;SHT31;58703;48.978;8.982;2022-08-19T00:59:24;20.05;76.61
71047;SHT31;58703;48.978;8.982;2022-08-19T01:01:51;20.07;76.43
71047;SHT31;58703;48.978;8.982;2022-08-19T01:04:17;20.08;76.36
71047;SHT31;58703;48.978;8.982;2022-08-19T01:06:43;20.08;76.37
71047;SHT31;58703;48.978;8.982;2022-08-19T01:09:09;20.18;75.84
71047;SHT31;58703;48.978;8.982;2022-08-19T01:11:40;20.19;75.90
71047;SHT31;58703;48.978;8.982;2022-08-19T01:14:08;20.17;76.22
71047;SHT31;58703;48.978;8.982;2022-08-19T01:16:34;20.14;76.04
71047;SHT31;58703;48.978;8.982;2022-08-19T01:19:01;20.17;75.99
71047;SHT31;58703;48.978;8.982;2022-08-19T01:21:32;20.17;76.05
71047;SHT31;58703;48.978;8.982;2022-08-19T01:23:59;20.12;76.40
71047;SHT31;58703;48.978;8.982;2022-08-19T01:26:26;20.07;76.61
71047;SHT31;58703;48.978;8.982;2022-08-19T01:28:54;20.02;76.66
71047;SHT31;58703;48.978;8.982;2022-08-19T01:31:24;20.01;76.62
71047;SHT31;58703;48.978;8.982;2022-08-19T01:33:52;20.01;76.81
71047;SHT31;58703;48.978;8.982;2022-08-19T01:36:34;20.00;76.80
71047;SHT31;58703;48.978;8.982;2022-08-19T01:39:02;19.98;76.98
71047;SHT31;58703;48.978;8.982;2022-08-19T01:41:27;19.95;77.04
71047;SHT31;58703;48.978;8.982;2022-08-19T01:43:53;19.88;77.39
71047;SHT31;58703;48.978;8.982;2022-08-19T01:46:19;19.82;77.52
71047;SHT31;58703;48.978;8.982;2022-08-19T01:48:45;19.87;77.68
71047;SHT31;58703;48.978;8.982;2022-08-19T01:51:12;19.85;77.65
71047;SHT31;58703;48.978;8.982;2022-08-19T01:53:38;19.84;77.76
71047;SHT31;58703;48.978;8.982;2022-08-19T01:56:04;19.85;77.60
71047;SHT31;58703;48.978;8.982;2022-08-19T01:58:35;19.82;77.74
71047;SHT31;58703;48.978;8.982;2022-08-19T02:01:03;19.78;77.83
71047;SHT31;58703;48.978;8.982;2022-08-19T02:03:29;19.74;78.08
71047;SHT31;58703;48.978;8.982;2022-08-19T02:05:57;19.78;77.87
71047;SHT31;58703;48.978;8.982;2022-08-19T02:08:28;19.78;78.04
71047;SHT31;58703;48.978;8.982;2022-08-19T02:10:54;19.75;78.06
71047;SHT31;58703;48.978;8.982;2022-08-19T02:13:20;19.73;78.07
71047;SHT31;58703;48.978;8.982;2022-08-19T02:15:46;19.75;77.90
71047;SHT31;58703;48.978;8.982;2022-08-19T02:18:11;19.74;78.14
71047;SHT31;58703;48.978;8.982;2022-08-19T02:20:39;19.71;78.18
71047;SHT31;58703;48.978;8.982;2022-08-19T02:23:06;19.70;78.26
71047;SHT31;58703;48.978;8.982;2022-08-19T02:25:32;19.70;78.21
71047;SHT31;58703;48.978;8.982;2022-08-19T02:27:57;19.68;78.17
71047;SHT31;58703;48.978;8.982;2022-08-19T02:30:24;19.64;78.35
71047;SHT31;58703;48.978;8.982;2022-08-19T02:32:51;19.58;78.45
71047;SHT31;58703;48.978;8.982;2022-08-19T02:35:17;19.57;78.59
71047;SHT31;58703;48.978;8.982;2022-08-19T02:37:43;19.54;78.76
71047;SHT31;58703;48.978;8.982;2022-08-19T02:40:30;19.51;78.66
71047;SHT31;58703;48.978;8.982;2022-08-19T02:42:59;19.53;78.58
71047;SHT31;58703;48.978;8.982;2022-08-19T02:45:24;19.50;78.65
71047;SHT31;58703;48.978;8.982;2022-08-19T02:47:50;19.47;78.62
71047;SHT31;58703;48.978;8.982;2022-08-19T02:50:15;19.40;79.03
71047;SHT31;58703;48.978;8.982;2022-08-19T02:52:41;19.36;79.31
71047;SHT31;58703;48.978;8.982;2022-08-19T02:55:07;19.34;79.24
71047;SHT31;58703;48.978;8.982;2022-08-19T02:57:33;19.33;79.43
71047;SHT31;58703;48.978;8.982;2022-08-19T02:59:59;19.29;79.43
71047;SHT31;58703;48.978;8.982;2022-08-19T03:02:25;19.27;79.57
71047;SHT31;58703;48.978;8.982;2022-08-19T03:04:51;19.23;79.76
71047;SHT31;58703;48.978;8.982;2022-08-19T03:07:17;19.20;79.87
71047;SHT31;58703;48.978;8.982;2022-08-19T03:09:43;19.20;79.85
71047;SHT31;58703;48.978;8.982;2022-08-19T03:12:09;19.17;80.10
71047;SHT31;58703;48.978;8.982;2022-08-19T03:14:36;19.09;80.08
71047;SHT31;58703;48.978;8.982;2022-08-19T03:17:02;19.10;80.11
71047;SHT31;58703;48.978;8.982;2022-08-19T03:19:29;19.09;80.14
71047;SHT31;58703;48.978;8.982;2022-08-19T03:21:57;19.06;80.21
71047;SHT31;58703;48.978;8.982;2022-08-19T03:24:23;19.10;80.29
71047;SHT31;58703;48.978;8.982;2022-08-19T03:26:52;19.10;80.31
71047;SHT31;58703;48.978;8.982;2022-08-19T03:29:20;19.09;80.13
71047;SHT31;58703;48.978;8.982;2022-08-19T03:31:46;19.09;80.11
71047;SHT31;58703;48.978;8.982;2022-08-19T03:34:14;19.06;80.39
71047;SHT31;58703;48.978;8.982;2022-08-19T03:36:40;19.05;80.47
71047;SHT31;58703;48.978;8.982;2022-08-19T03:39:06;19.06;80.41
71047;SHT31;58703;48.978;8.982;2022-08-19T03:41:37;19.06;80.39
71047;SHT31;58703;48.978;8.982;2022-08-19T03:44:03;19.05;80.33
71047;SHT31;58703;48.978;8.982;2022-08-19T03:46:32;19.00;80.52
71047;SHT31;58703;48.978;8.982;2022-08-19T03:48:59;19.00;80.64
71047;SHT31;58703;48.978;8.982;2022-08-19T03:51:27;18.94;80.87
71047;SHT31;58703;48.978;8.982;2022-08-19T03:53:54;18.95;80.82
71047;SHT31;58703;48.978;8.982;2022-08-19T03:56:21;18.92;81.08
71047;SHT31;58703;48.978;8.982;2022-08-19T03:58:47;18.85;81.34
71047;SHT31;58703;48.978;8.982;2022-08-19T04:01:16;18.94;80.94
71047;SHT31;58703;48.978;8.982;2022-08-19T04:03:43;18.95;81.06
71047;SHT31;58703;48.978;8.982;2022-08-19T04:06:20;18.95;80.98
71047;SHT31;58703;48.978;8.982;2022-08-19T04:08:49;19.02;80.55
71047;SHT31;58703;48.978;8.982;2022-08-19T04:11:24;19.03;80.57
71047;SHT31;58703;48.978;8.982;2022-08-19T04:13:51;19.07;80.47
71047;SHT31;58703;48.978;8.982;2022-08-19T04:16:19;19.07;80.30
71047;SHT31;58703;48.978;8.982;2022-08-19T04:18:46;19.06;80.39
71047;SHT31;58703;48.978;8.982;2022-08-19T04:21:23;19.07;80.50
71047;SHT31;58703;48.978;8.982;2022-08-19T04:23:49;19.06;80.38
71047;SHT31;58703;48.978;8.982;2022-08-19T04:26:17;19.05;80.52
71047;SHT31;58703;48.978;8.982;2022-08-19T04:28:45;19.06;80.41
71047;SHT31;58703;48.978;8.982;2022-08-19T04:31:20;19.12;80.28
71047;SHT31;58703;48.978;8.982;2022-08-19T04:33:46;19.07;80.35
71047;SHT31;58703;48.978;8.982;2022-08-19T04:36:18;19.13;80.14
71047;SHT31;58703;48.978;8.982;2022-08-19T04:38:46;19.10;80.28
71047;SHT31;58703;48.978;8.982;2022-08-19T04:41:11;19.06;80.35
71047;SHT31;58703;48.978;8.982;2022-08-19T04:43:56;19.05;80.38
71047;SHT31;58703;48.978;8.982;2022-08-19T04:46:22;19.07;80.39
71047;SHT31;58703;48.978;8.982;2022-08-19T04:48:47;19.07;80.48
71047;SHT31;58703;48.978;8.982;2022-08-19T04:51:13;19.09;80.37
71047;SHT31;58703;48.978;8.982;2022-08-19T04:53:40;19.09;80.24
71047;SHT31;58703;48.978;8.982;2022-08-19T04:56:12;19.09;80.49
71047;SHT31;58703;48.978;8.982;2022-08-19T04:58:39;19.06;80.36
71047;SHT31;58703;48.978;8.982;2022-08-19T05:01:09;19.10;80.40
71047;SHT31;58703;48.978;8.982;2022-08-19T05:03:35;19.16;80.17
71047;SHT31;58703;48.978;8.982;2022-08-19T05:06:09;19.15;80.22
71047;SHT31;58703;48.978;8.982;2022-08-19T05:08:38;19.15;80.29
71047;SHT31;58703;48.978;8.982;2022-08-19T05:11:17;19.12;80.30
71047;SHT31;58703;48.978;8.982;2022-08-19T05:13:43;19.15;80.36
71047;SHT31;58703;48.978;8.982;2022-08-19T05:16:10;19.17;80.19
71047;SHT31;58703;48.978;8.982;2022-08-19T05:18:36;19.13;80.18
71047;SHT31;58703;48.978;8.982;2022-08-19T05:21:21;19.16;80.42
71047;SHT31;58703;48.978;8.982;2022-08-19T05:24:06;19.17;80.19
71047;SHT31;58703;48.978;8.982;2022-08-19T05:26:39;19.19;80.06
71047;SHT31;58703;48.978;8.982;2022-08-19T05:29:05;19.22;79.89
71047;SHT31;58703;48.978;8.982;2022-08-19T05:31:33;19.27;80.03
71047;SHT31;58703;48.978;8.982;2022-08-19T05:33:58;19.29;79.84
71047;SHT31;58703;48.978;8.982;2022-08-19T05:36:26;19.29;79.84
71047;SHT31;58703;48.978;8.982;2022-08-19T05:38:52;19.27;79.97
71047;SHT31;58703;48.978;8.982;2022-08-19T05:41:20;19.33;79.64
71047;SHT31;58703;48.978;8.982;2022-08-19T05:43:46;19.39;79.65
71047;SHT31;58703;48.978;8.982;2022-08-19T05:46:19;19.37;79.41
71047;SHT31;58703;48.978;8.982;2022-08-19T05:48:45;19.37;79.32
71047;SHT31;58703;48.978;8.982;2022-08-19T05:51:10;19.41;79.40
71047;SHT31;58703;48.978;8.982;2022-08-19T05:53:36;19.40;79.31
71047;SHT31;58703;48.978;8.982;2022-08-19T05:56:06;19.43;79.22
71047;SHT31;58703;48.978;8.982;2022-08-19T05:58:33;19.43;79.22
71047;SHT31;58703;48.978;8.982;2022-08-19T06:00:59;19.47;79.03
71047;SHT31;58703;48.978;8.982;2022-08-19T06:03:31;19.46;79.10
71047;SHT31;58703;48.978;8.982;2022-08-19T06:05:57;19.50;79.04
71047;SHT31;58703;48.978;8.982;2022-08-19T06:08:25;19.53;78.96
71047;SHT31;58703;48.978;8.982;2022-08-19T06:10:51;19.51;79.01
71047;SHT31;58703;48.978;8.982;2022-08-19T06:13:16;19.57;78.88
71047;SHT31;58703;48.978;8.982;2022-08-19T06:15:42;19.58;78.87
71047;SHT31;58703;48.978;8.982;2022-08-19T06:18:09;19.57;78.73
71047;SHT31;58703;48.978;8.982;2022-08-19T06:20:35;19.60;78.97
71047;SHT31;58703;48.978;8.982;2022-08-19T06:23:00;19.64;78.90
71047;SHT31;58703;48.978;8.982;2022-08-19T06:25:26;19.64;78.70
71047;SHT31;58703;48.978;8.982;2022-08-19T06:27:51;19.64;78.59
71047;SHT31;58703;48.978;8.982;2022-08-19T06:30:18;19.66;78.73
71047;SHT31;58703;48.978;8.982;2022-08-19T06:32:43;19.64;78.73
71047;SHT31;58703;48.978;8.982;2022-08-19T06:35:09;19.67;78.72
71047;SHT31;58703;48.978;8.982;2022-08-19T06:37:37;19.70;78.51
71047;SHT31;58703;48.978;8.982;2022-08-19T06:40:03;19.75;78.19
71047;SHT31;58703;48.978;8.982;2022-08-19T06:42:29;19.77;78.14
71047;SHT31;58703;48.978;8.982;2022-08-19T06:44:55;19.81;78.25
71047;SHT31;58703;48.978;8.982;2022-08-19T06:47:21;19.81;78.01
71047;SHT31;58703;48.978;8.982;2022-08-19T06:49:47;19.85;77.90
71047;SHT31;58703;48.978;8.982;2022-08-19T06:52:13;19.82;78.08
71047;SHT31;58703;48.978;8.982;2022-08-19T06:54:40;19.85;77.98
71047;SHT31;58703;48.978;8.982;2022-08-19T06:57:08;19.87;77.93
71047;SHT31;58703;48.978;8.982;2022-08-19T06:59:38;19.91;77.70
71047;SHT31;58703;48.978;8.982;2022-08-19T07:02:06;20.00;77.43
71047;SHT31;58703;48.978;8.982;2022-08-19T07:04:34;20.01;77.49
71047;SHT31;58703;48.978;8.982;2022-08-19T07:07:04;19.95;77.37
71047;SHT31;58703;48.978;8.982;2022-08-19T07:09:34;20.00;77.29
71047;SHT31;58703;48.978;8.982;2022-08-19T07:12:04;20.05;77.21
71047;SHT31;58703;48.978;8.982;2022-08-19T07:14:30;20.10;76.94
71047;SHT31;58703;48.978;8.982;2022-08-19T07:16:56;20.14;76.76
71047;SHT31;58703;48.978;8.982;2022-08-19T07:19:24;20.24;76.43
71047;SHT31;58703;48.978;8.982;2022-08-19T07:21:51;20.29;76.06
71047;SHT31;58703;48.978;8.982;2022-08-19T07:24:21;20.42;76.13
71047;SHT31;58703;48.978;8.982;2022-08-19T07:26:50;20.53;75.62
71047;SHT31;58703;48.978;8.982;2022-08-19T07:29:16;20.66;75.03
71047;SHT31;58703;48.978;8.982;2022-08-19T07:31:42;20.80;74.70
71047;SHT31;58703;48.978;8.982;2022-08-19T07:34:09;20.83;74.96
71047;SHT31;58703;48.978;8.982;2022-08-19T07:36:38;20.89;74.60
71047;SHT31;58703;48.978;8.982;2022-08-19T07:39:12;20.84;74.80
71047;SHT31;58703;48.978;8.982;2022-08-19T07:41:38;20.94;74.37
71047;SHT31;58703;48.978;8.982;2022-08-19T07:44:05;21.26;73.75
71047;SHT31;58703;48.978;8.982;2022-08-19T07:46:38;20.97;74.33
71047;SHT31;58703;48.978;8.982;2022-08-19T07:49:05;20.97;74.36
71047;SHT31;58703;48.978;8.982;2022-08-19T07:51:31;21.11;73.94
71047;SHT31;58703;48.978;8.982;2022-08-19T07:53:57;21.17;73.78
71047;SHT31;58703;48.978;8.982;2022-08-19T07:56:23;21.35;73.30
71047;SHT31;58703;48.978;8.982;2022-08-19T07:58:51;21.33;73.22
71047;SHT31;58703;48.978;8.982;2022-08-19T08:01:20;21.57;73.25
71047;SHT31;58703;48.978;8.982;2022-08-19T08:03:50;21.55;72.91
71047;SHT31;58703;48.978;8.982;2022-08-19T08:06:34;21.58;72.88
71047;SHT31;58703;48.978;8.982;2022-08-19T08:09:28;21.66;72.78
71047;SHT31;58703;48.978;8.982;2022-08-19T08:11:58;21.79;72.81
71047;SHT31;58703;48.978;8.982;2022-08-19T08:14:29;21.77;72.50
71047;SHT31;58703;48.978;8.982;2022-08-19T08:16:56;21.78;72.48
71047;SHT31;58703;48.978;8.982;2022-08-19T08:19:24;21.78;72.53
71047;SHT31;58703;48.978;8.982;2022-08-19T08:21:50;22.01;72.28
71047;SHT31;58703;48.978;8.982;2022-08-19T08:24:17;22.01;72.37
71047;SHT31;58703;48.978;8.982;2022-08-19T08:26:43;22.19;71.88
71047;SHT31;58703;48.978;8.982;2022-08-19T08:29:13;22.37;71.33
71047;SHT31;58703;48.978;8.982;2022-08-19T08:31:42;22.43;70.75
71047;SHT31;58703;48.978;8.982;2022-08-19T08:34:08;22.42;71.18
71047;SHT31;58703;48.978;8.982;2022-08-19T08:36:39;22.23;71.12
71047;SHT31;58703;48.978;8.982;2022-08-19T08:39:14;21.99;72.30
71047;SHT31;58703;48.978;8.982;2022-08-19T08:41:49;22.20;72.20
71047;SHT31;58703;48.978;8.982;2022-08-19T08:44:23;22.28;71.65
71047;SHT31;58703;48.978;8.982;2022-08-19T08:46:58;22.29;71.49
71047;SHT31;58703;48.978;8.982;2022-08-19T08:52:00;22.22;72.05
71047;SHT31;58703;48.978;8.982;2022-08-19T08:54:41;22.29;71.98
71047;SHT31;58703;48.978;8.982;2022-08-19T08:57:13;22.26;71.71
71047;SHT31;58703;48.978;8.982;2022-08-19T08:59:41;22.10;72.15
71047;SHT31;58703;48.978;8.982;2022-08-19T09:02:08;22.10;72.30
71047;SHT31;58703;48.978;8.982;2022-08-19T09:04:35;22.17;72.16
71047;SHT31;58703;48.978;8.982;2022-08-19T09:09:42;22.42;71.35
71047;SHT31;58703;48.978;8.982;2022-08-19T09:12:25;22.64;71.16
71047;SHT31;58703;48.978;8.982;2022-08-19T09:15:06;22.43;71.21
71047;SHT31;58703;48.978;8.982;2022-08-19T09:17:33;22.46;71.54
71047;SHT31;58703;48.978;8.982;2022-08-19T09:22:27;22.39;71.25
71047;SHT31;58703;48.978;8.982;2022-08-19T09:24:53;22.56;71.06
71047;SHT31;58703;48.978;8.982;2022-08-19T09:27:20;22.67;70.95
71047;SHT31;58703;48.978;8.982;2022-08-19T09:29:49;22.55;71.27
71047;SHT31;58703;48.978;8.982;2022-08-19T09:32:15;22.64;70.51
71047;SHT31;58703;48.978;8.982;2022-08-19T09:34:41;22.66;70.59
71047;SHT31;58703;48.978;8.982;2022-08-19T09:37:06;22.74;70.68
71047;SHT31;58703;48.978;8.982;2022-08-19T09:39:32;22.81;70.68
71047;SHT31;58703;48.978;8.982;2022-08-19T09:41:58;22.78;70.51
71047;SHT31;58703;48.978;8.982;2022-08-19T09:44:23;22.93;70.13
71047;SHT31;58703;48.978;8.982;2022-08-19T09:46:49;23.04;69.80
71047;SHT31;58703;48.978;8.982;2022-08-19T09:49:18;23.01;69.51
71047;SHT31;58703;48.978;8.982;2022-08-19T09:51:44;23.12;69.15
71047;SHT31;58703;48.978;8.982;2022-08-19T09:54:09;23.25;68.71
71047;SHT31;58703;48.978;8.982;2022-08-19T09:56:35;23.31;68.57
71047;SHT31;58703;48.978;8.982;2022-08-19T09:59:02;23.54;68.13
71047;SHT31;58703;48.978;8.982;2022-08-19T10:01:30;23.81;67.05
71047;SHT31;58703;48.978;8.982;2022-08-19T10:03:58;23.73;66.77
71047;SHT31;58703;48.978;8.982;2022-08-19T10:06:26;23.92;66.61
71047;SHT31;58703;48.978;8.982;2022-08-19T10:08:55;24.20;66.18
71047;SHT31;58703;48.978;8.982;2022-08-19T10:11:21;24.64;64.19
71047;SHT31;58703;48.978;8.982;2022-08-19T10:13:48;24.80;63.93
71047;SHT31;58703;48.978;8.982;2022-08-19T10:16:18;24.53;64.13
71047;SHT31;58703;48.978;8.982;2022-08-19T10:18:45;24.73;64.02
71047;SHT31;58703;48.978;8.982;2022-08-19T10:21:12;24.91;63.62
71047;SHT31;58703;48.978;8.982;2022-08-19T10:23:40;24.90;62.73
71047;SHT31;58703;48.978;8.982;2022-08-19T10:26:12;25.01;62.42
71047;SHT31;58703;48.978;8.982;2022-08-19T10:28:38;24.59;62.37
71047;SHT31;58703;48.978;8.982;2022-08-19T10:31:07;24.91;62.29
71047;SHT31;58703;48.978;8.982;2022-08-19T10:33:35;25.04;61.17
71047;SHT31;58703;48.978;8.982;2022-08-19T10:36:11;25.18;61.06
71047;SHT31;58703;48.978;8.982;2022-08-19T10:38:37;25.21;59.93
71047;SHT31;58703;48.978;8.982;2022-08-19T10:41:11;25.75;59.15
71047;SHT31;58703;48.978;8.982;2022-08-19T10:43:37;25.43;59.89
71047;SHT31;58703;48.978;8.982;2022-08-19T10:46:08;25.36;58.82
71047;SHT31;58703;48.978;8.982;2022-08-19T10:48:34;25.87;58.58
71047;SHT31;58703;48.978;8.982;2022-08-19T10:51:00;25.80;57.86
71047;SHT31;58703;48.978;8.982;2022-08-19T10:53:44;25.79;58.16
71047;SHT31;58703;48.978;8.982;2022-08-19T10:56:11;25.97;57.59
71047;SHT31;58703;48.978;8.982;2022-08-19T10:58:56;26.14;57.60
71047;SHT31;58703;48.978;8.982;2022-08-19T11:01:24;26.24;56.90
71047;SHT31;58703;48.978;8.982;2022-08-19T11:03:49;27.05;55.86
71047;SHT31;58703;48.978;8.982;2022-08-19T11:06:15;26.59;55.30
71047;SHT31;58703;48.978;8.982;2022-08-19T11:08:41;26.45;55.92
71047;SHT31;58703;48.978;8.982;2022-08-19T11:11:07;25.85;56.35
71047;SHT31;58703;48.978;8.982;2022-08-19T11:13:36;25.35;58.34
71047;SHT31;58703;48.978;8.982;2022-08-19T11:16:08;25.61;56.81
71047;SHT31;58703;48.978;8.982;2022-08-19T11:18:36;25.55;57.21
71047;SHT31;58703;48.978;8.982;2022-08-19T11:21:12;25.67;57.01
71047;SHT31;58703;48.978;8.982;2022-08-19T11:23:39;25.50;57.22
71047;SHT31;58703;48.978;8.982;2022-08-19T11:26:04;25.34;58.12
71047;SHT31;58703;48.978;8.982;2022-08-19T11:28:30;25.49;56.79
71047;SHT31;58703;48.978;8.982;2022-08-19T11:30:55;25.63;57.17
71047;SHT31;58703;48.978;8.982;2022-08-19T11:33:21;25.80;57.31
71047;SHT31;58703;48.978;8.982;2022-08-19T11:35:47;26.43;55.23
71047;SHT31;58703;48.978;8.982;2022-08-19T11:38:12;26.89;53.02
71047;SHT31;58703;48.978;8.982;2022-08-19T11:40:39;26.24;53.73
71047;SHT31;58703;48.978;8.982;2022-08-19T11:43:07;25.73;52.98
71047;SHT31;58703;48.978;8.982;2022-08-19T11:45:35;25.55;53.99
71047;SHT31;58703;48.978;8.982;2022-08-19T11:48:01;25.35;54.44
71047;SHT31;58703;48.978;8.982;2022-08-19T11:50:27;25.42;54.51
71047;SHT31;58703;48.978;8.982;2022-08-19T11:52:56;25.45;53.79
71047;SHT31;58703;48.978;8.982;2022-08-19T11:55:22;25.58;53.29
71047;SHT31;58703;48.978;8.982;2022-08-19T11:57:49;25.83;52.57
71047;SHT31;58703;48.978;8.982;2022-08-19T12:00:14;26.01;52.60
71047;SHT31;58703;48.978;8.982;2022-08-19T12:02:40;26.31;52.21
71047;SHT31;58703;48.978;8.982;2022-08-19T12:05:06;26.28;52.32
71047;SHT31;58703;48.978;8.982;2022-08-19T12:07:33;26.57;50.66
71047;SHT31;58703;48.978;8.982;2022-08-19T12:09:59;26.87;49.69
71047;SHT31;58703;48.978;8.982;2022-08-19T12:12:26;27.12;48.42
71047;SHT31;58703;48.978;8.982;2022-08-19T12:14:52;27.30;48.79
71047;SHT31;58703;48.978;8.982;2022-08-19T12:17:23;27.59;49.50
71047;SHT31;58703;48.978;8.982;2022-08-19T12:19:49;27.36;50.56
71047;SHT31;58703;48.978;8.982;2022-08-19T12:22:14;27.12;50.86
71047;SHT31;58703;48.978;8.982;2022-08-19T12:24:40;27.46;49.92
71047;SHT31;58703;48.978;8.982;2022-08-19T12:27:05;27.45;48.90
71047;SHT31;58703;48.978;8.982;2022-08-19T12:29:31;27.61;48.20
71047;SHT31;58703;48.978;8.982;2022-08-19T12:31:58;28.24;48.63
71047;SHT31;58703;48.978;8.982;2022-08-19T12:34:28;28.38;47.58
71047;SHT31;58703;48.978;8.982;2022-08-19T12:36:57;28.14;48.22
71047;SHT31;58703;48.978;8.982;2022-08-19T12:39:23;28.14;48.39
71047;SHT31;58703;48.978;8.982;2022-08-19T12:41:49;27.90;47.50
71047;SHT31;58703;48.978;8.982;2022-08-19T12:44:15;28.34;46.31
71047;SHT31;58703;48.978;8.982;2022-08-19T12:46:42;27.69;47.65
71047;SHT31;58703;48.978;8.982;2022-08-19T12:49:07;28.17;47.48
71047;SHT31;58703;48.978;8.982;2022-08-19T12:51:33;28.05;47.45
71047;SHT31;58703;48.978;8.982;2022-08-19T12:53:58;27.60;48.54
71047;SHT31;58703;48.978;8.982;2022-08-19T12:56:24;27.93;49.01
71047;SHT31;58703;48.978;8.982;2022-08-19T12:58:50;27.50;50.26
71047;SHT31;58703;48.978;8.982;2022-08-19T13:01:16;27.98;49.29
71047;SHT31;58703;48.978;8.982;2022-08-19T13:03:45;27.73;49.09
71047;SHT31;58703;48.978;8.982;2022-08-19T13:06:10;27.47;49.44
71047;SHT31;58703;48.978;8.982;2022-08-19T13:08:37;27.45;49.07
71047;SHT31;58703;48.978;8.982;2022-08-19T13:11:14;27.38;49.44
71047;SHT31;58703;48.978;8.982;2022-08-19T13:13:42;27.28;49.66
71047;SHT31;58703;48.978;8.982;2022-08-19T13:16:09;27.20;49.79
71047;SHT31;58703;48.978;8.982;2022-08-19T13:18:37;27.13;49.41
71047;SHT31;58703;48.978;8.982;2022-08-19T13:21:08;27.05;49.75
71047;SHT31;58703;48.978;8.982;2022-08-19T13:23:35;26.78;50.43
71047;SHT31;58703;48.978;8.982;2022-08-19T13:26:05;26.84;50.25
71047;SHT31;58703;48.978;8.982;2022-08-19T13:28:32;26.84;49.44
71047;SHT31;58703;48.978;8.982;2022-08-19T13:31:17;27.06;49.58
71047;SHT31;58703;48.978;8.982;2022-08-19T13:34:02;27.08;49.84
71047;SHT31;58703;48.978;8.982;2022-08-19T13:36:28;26.91;49.37
71047;SHT31;58703;48.978;8.982;2022-08-19T13:38:54;26.88;49.84
71047;SHT31;58703;48.978;8.982;2022-08-19T13:41:20;27.16;49.21
71047;SHT31;58703;48.978;8.982;2022-08-19T13:43:45;27.19;49.27
71047;SHT31;58703;48.978;8.982;2022-08-19T13:46:12;27.20;49.32
71047;SHT31;58703;48.978;8.982;2022-08-19T13:48:39;27.23;48.73
71047;SHT31;58703;48.978;8.982;2022-08-19T13:51:07;27.69;48.57
71047;SHT31;58703;48.978;8.982;2022-08-19T13:53:38;27.56;47.35
71047;SHT31;58703;48.978;8.982;2022-08-19T13:56:06;28.00;46.48
71047;SHT31;58703;48.978;8.982;2022-08-19T13:58:32;27.80;46.42
71047;SHT31;58703;48.978;8.982;2022-08-19T14:00:58;27.64;46.59
71047;SHT31;58703;48.978;8.982;2022-08-19T14:03:25;28.24;45.89
71047;SHT31;58703;48.978;8.982;2022-08-19T14:05:50;27.47;46.23
71047;SHT31;58703;48.978;8.982;2022-08-19T14:08:17;27.45;46.66
71047;SHT31;58703;48.978;8.982;2022-08-19T14:10:43;28.08;45.65
71047;SHT31;58703;48.978;8.982;2022-08-19T14:13:12;28.03;45.63
71047;SHT31;58703;48.978;8.982;2022-08-19T14:15:38;27.90;45.59
71047;SHT31;58703;48.978;8.982;2022-08-19T14:18:03;28.05;45.26
71047;SHT31;58703;48.978;8.982;2022-08-19T14:20:29;28.03;44.82
71047;SHT31;58703;48.978;8.982;2022-08-19T14:22:55;28.61;43.62
71047;SHT31;58703;48.978;8.982;2022-08-19T14:25:27;28.93;43.57
71047;SHT31;58703;48.978;8.982;2022-08-19T14:27:53;28.73;43.84
71047;SHT31;58703;48.978;8.982;2022-08-19T14:30:22;29.30;42.46
71047;SHT31;58703;48.978;8.982;2022-08-19T14:32:48;28.44;42.85
71047;SHT31;58703;48.978;8.982;2022-08-19T14:35:15;29.17;41.85
71047;SHT31;58703;48.978;8.982;2022-08-19T14:37:42;29.25;40.97
71047;SHT31;58703;48.978;8.982;2022-08-19T14:40:08;29.42;40.80
71047;SHT31;58703;48.978;8.982;2022-08-19T14:42:34;29.43;40.36
71047;SHT31;58703;48.978;8.982;2022-08-19T14:45:00;29.22;39.91
71047;SHT31;58703;48.978;8.982;2022-08-19T14:47:26;29.19;40.40
71047;SHT31;58703;48.978;8.982;2022-08-19T14:49:53;28.79;40.56
71047;SHT31;58703;48.978;8.982;2022-08-19T14:52:19;28.35;40.97
71047;SHT31;58703;48.978;8.982;2022-08-19T14:54:45;28.49;39.79
71047;SHT31;58703;48.978;8.982;2022-08-19T14:57:14;28.58;39.32
71047;SHT31;58703;48.978;8.982;2022-08-19T14:59:44;28.69;39.37
71047;SHT31;58703;48.978;8.982;2022-08-19T15:02:10;28.51;39.72
71047;SHT31;58703;48.978;8.982;2022-08-19T15:04:36;28.73;40.15
71047;SHT31;58703;48.978;8.982;2022-08-19T15:07:03;28.66;38.61
71047;SHT31;58703;48.978;8.982;2022-08-19T15:09:33;28.40;39.12
71047;SHT31;58703;48.978;8.982;2022-08-19T15:12:00;28.56;39.37
71047;SHT31;58703;48.978;8.982;2022-08-19T15:14:28;28.34;39.41
71047;SHT31;58703;48.978;8.982;2022-08-19T15:16:57;27.94;39.81
71047;SHT31;58703;48.978;8.982;2022-08-19T15:19:23;27.81;40.15
71047;SHT31;58703;48.978;8.982;2022-08-19T15:21:49;27.98;40.61
71047;SHT31;58703;48.978;8.982;2022-08-19T15:24:15;27.77;40.51
71047;SHT31;58703;48.978;8.982;2022-08-19T15:26:41;27.77;40.33
71047;SHT31;58703;48.978;8.982;2022-08-19T15:29:08;27.79;40.57
71047;SHT31;58703;48.978;8.982;2022-08-19T15:31:34;27.79;40.61
71047;SHT31;58703;48.978;8.982;2022-08-19T15:34:02;27.83;41.09
71047;SHT31;58703;48.978;8.982;2022-08-19T15:36:28;27.79;40.42
71047;SHT31;58703;48.978;8.982;2022-08-19T15:38:55;27.73;40.73
71047;SHT31;58703;48.978;8.982;2022-08-19T15:41:25;27.56;41.17